createdAt,value
2018-09-02T00:00:40.406Z,8.90
2018-09-02T00:03:08.922Z,8.80
2018-09-02T00:05:37.956Z,8.70
2018-09-02T00:08:06.929Z,8.70
2018-09-02T00:10:35.664Z,8.70
2018-09-02T00:13:04.405Z,8.70
2018-09-02T00:15:33.076Z,8.70
2018-09-02T00:18:01.643Z,8.70
2018-09-02T00:20:30.209Z,8.70
2018-09-02T00:22:58.958Z,8.70
2018-09-02T00:25:27.699Z,8.70
2018-09-02T00:27:56.321Z,8.70
2018-09-02T00:30:25.220Z,8.70
2018-09-02T00:32:53.678Z,8.50
2018-09-02T00:35:22.456Z,8.60
2018-09-02T00:37:51.161Z,8.60
2018-09-02T00:40:19.640Z,8.60
2018-09-02T00:42:48.360Z,8.70
2018-09-02T00:45:16.847Z,8.70
2018-09-02T00:47:45.332Z,8.80
2018-09-02T00:50:14.089Z,8.70
2018-09-02T00:52:42.775Z,8.60
2018-09-02T00:55:11.400Z,8.50
2018-09-02T00:57:40.206Z,8.50
2018-09-02T01:00:08.681Z,8.50
2018-09-02T01:02:37.812Z,8.50
2018-09-02T01:05:06.798Z,8.40
2018-09-02T01:07:35.289Z,8.40
2018-09-02T01:10:03.869Z,8.50
2018-09-02T01:12:32.448Z,8.40
2018-09-02T01:15:01.140Z,8.40
2018-09-02T01:17:30.012Z,8.30
2018-09-02T01:19:58.494Z,8.40
2018-09-02T01:22:27.056Z,8.50
2018-09-02T01:24:55.658Z,8.60
2018-09-02T01:27:24.127Z,8.60
2018-09-02T01:29:52.619Z,8.60
2018-09-02T01:32:21.393Z,8.60
2018-09-02T01:34:50.119Z,8.60
2018-09-02T01:37:18.703Z,8.50
2018-09-02T01:39:47.386Z,8.40
2018-09-02T01:42:15.970Z,8.30
2018-09-02T01:44:44.665Z,8.30
2018-09-02T01:47:13.385Z,8.20
2018-09-02T01:49:42.187Z,8.10
2018-09-02T01:52:10.939Z,8.10
2018-09-02T01:54:39.484Z,8.10
2018-09-02T01:57:08.060Z,8.00
2018-09-02T01:59:36.703Z,7.90
2018-09-02T02:02:05.446Z,8.00
2018-09-02T02:04:39.434Z,8.10
2018-09-02T02:07:08.189Z,8.10
2018-09-02T02:09:36.723Z,8.10
2018-09-02T02:12:05.401Z,7.90
2018-09-02T02:14:33.899Z,7.90
2018-09-02T02:17:02.483Z,7.90
2018-09-02T02:19:31.788Z,7.90
2018-09-02T02:22:00.491Z,7.90
2018-09-02T02:24:29.132Z,7.80
2018-09-02T02:26:57.979Z,7.70
2018-09-02T02:29:26.587Z,7.60
2018-09-02T02:31:55.069Z,7.50
2018-09-02T02:34:24.159Z,7.50
2018-09-02T02:36:53.032Z,7.40
2018-09-02T02:39:21.533Z,7.40
2018-09-02T02:41:50.075Z,7.40
2018-09-02T02:44:18.635Z,7.50
2018-09-02T02:46:47.304Z,7.50
2018-09-02T02:49:16.155Z,7.60
2018-09-02T02:51:44.978Z,7.50
2018-09-02T02:54:13.570Z,7.60
2018-09-02T02:56:42.228Z,7.50
2018-09-02T02:59:10.756Z,7.50
2018-09-02T03:01:39.229Z,7.60
2018-09-02T03:04:07.945Z,7.50
2018-09-02T03:06:36.412Z,7.50
2018-09-02T03:09:06.459Z,7.50
2018-09-02T03:11:35.010Z,7.40
2018-09-02T03:14:03.510Z,7.40
2018-09-02T03:16:32.058Z,7.30
2018-09-02T03:19:00.643Z,7.20
2018-09-02T03:21:29.151Z,7.00
2018-09-02T03:23:57.661Z,6.90
2018-09-02T03:26:26.423Z,6.90
2018-09-02T03:28:55.143Z,6.90
2018-09-02T03:31:23.920Z,7.00
2018-09-02T03:33:52.426Z,7.00
2018-09-02T03:36:20.904Z,7.10
2018-09-02T03:38:49.452Z,6.90
2018-09-02T03:41:18.146Z,6.80
2018-09-02T03:43:47.121Z,6.70
2018-09-02T03:46:15.908Z,6.70
2018-09-02T03:48:44.528Z,6.80
2018-09-02T03:51:13.035Z,6.90
2018-09-02T03:53:41.641Z,7.00
2018-09-02T03:56:10.090Z,7.10
2018-09-02T03:58:38.764Z,7.10
2018-09-02T04:01:09.205Z,7.20
2018-09-02T04:03:37.891Z,7.10
2018-09-02T04:06:06.383Z,7.30
2018-09-02T04:08:35.537Z,7.30
2018-09-02T04:11:04.117Z,7.30
2018-09-02T04:13:32.707Z,7.20
2018-09-02T04:16:01.211Z,7.10
2018-09-02T04:18:29.866Z,7.10
2018-09-02T04:20:58.384Z,7.10
2018-09-02T04:23:26.964Z,7.10
2018-09-02T04:25:55.510Z,6.80
2018-09-02T04:28:24.007Z,6.70
2018-09-02T04:30:52.486Z,6.70
2018-09-02T04:33:21.331Z,6.70
2018-09-02T04:35:50.000Z,6.80
2018-09-02T04:38:18.477Z,6.80
2018-09-02T04:40:46.989Z,6.80
2018-09-02T04:43:15.884Z,6.80
2018-09-02T04:45:44.572Z,6.90
2018-09-02T04:48:13.175Z,6.90
2018-09-02T04:50:41.648Z,6.90
2018-09-02T04:53:10.158Z,6.90
2018-09-02T04:55:38.712Z,6.90
2018-09-02T04:58:07.216Z,6.90
2018-09-02T05:00:35.707Z,6.90
2018-09-02T05:03:04.443Z,6.90
2018-09-02T05:05:32.943Z,7.00
2018-09-02T05:08:01.532Z,7.00
2018-09-02T05:10:30.161Z,7.00
2018-09-02T05:12:58.658Z,7.00
2018-09-02T05:15:27.198Z,7.00
2018-09-02T05:17:56.214Z,7.10
2018-09-02T05:20:24.759Z,7.10
2018-09-02T05:22:54.459Z,7.00
2018-09-02T05:25:22.965Z,7.10
2018-09-02T05:27:51.801Z,7.10
2018-09-02T05:30:20.442Z,7.20
2018-09-02T05:32:48.965Z,7.00
2018-09-02T05:35:17.531Z,7.00
2018-09-02T05:37:46.376Z,7.50
2018-09-02T05:40:14.897Z,7.80
2018-09-02T05:42:43.770Z,8.00
2018-09-02T05:45:12.426Z,8.20
2018-09-02T05:47:41.053Z,8.20
2018-09-02T05:50:09.585Z,8.20
2018-09-02T05:52:38.096Z,8.20
2018-09-02T05:55:07.570Z,8.30
2018-09-02T05:57:36.404Z,8.30
2018-09-02T06:00:05.479Z,8.30
2018-09-02T06:02:34.262Z,8.30
2018-09-02T06:05:02.936Z,8.30
2018-09-02T06:07:31.415Z,8.40
2018-09-02T06:10:00.063Z,8.50
2018-09-02T06:12:28.792Z,11.60
2018-09-02T06:14:57.502Z,8.70
2018-09-02T06:17:26.311Z,8.80
2018-09-02T06:19:54.842Z,8.80
2018-09-02T06:22:23.757Z,8.90
2018-09-02T06:24:52.495Z,9.00
2018-09-02T06:27:21.245Z,9.20
2018-09-02T06:29:49.979Z,9.30
2018-09-02T06:32:18.477Z,9.30
2018-09-02T06:34:46.999Z,9.30
2018-09-02T06:37:15.719Z,9.40
2018-09-02T06:39:48.160Z,9.60
2018-09-02T06:42:17.068Z,9.70
2018-09-02T06:44:45.568Z,9.90
2018-09-02T06:47:14.333Z,9.90
2018-09-02T06:49:43.077Z,10.00
2018-09-02T06:52:12.101Z,10.10
2018-09-02T06:54:40.687Z,10.30
2018-09-02T06:57:09.261Z,10.50
2018-09-02T06:59:38.021Z,10.60
2018-09-02T07:02:06.916Z,10.80
2018-09-02T07:04:35.439Z,10.90
2018-09-02T07:07:04.456Z,11.00
2018-09-02T07:09:32.995Z,11.00
2018-09-02T07:12:01.511Z,11.20
2018-09-02T07:14:30.820Z,11.30
2018-09-02T07:16:59.308Z,11.50
2018-09-02T07:19:27.829Z,11.60
2018-09-02T07:21:56.380Z,11.80
2018-09-02T07:24:25.041Z,11.90
2018-09-02T07:26:53.579Z,12.10
2018-09-02T07:29:22.244Z,12.40
2018-09-02T07:31:50.779Z,12.60
2018-09-02T07:34:19.328Z,12.70
2018-09-02T07:36:48.415Z,12.80
2018-09-02T07:39:17.032Z,13.00
2018-09-02T07:41:45.729Z,13.10
2018-09-02T07:44:14.358Z,13.30
2018-09-02T07:46:43.018Z,13.50
2018-09-02T07:49:11.940Z,13.80
2018-09-02T07:51:40.618Z,14.10
2018-09-02T07:54:09.393Z,14.80
2018-09-02T07:56:38.036Z,15.10
2018-09-02T07:59:06.992Z,15.40
2018-09-02T08:01:35.727Z,15.70
2018-09-02T08:04:04.642Z,16.00
2018-09-02T08:06:33.379Z,16.10
2018-09-02T08:09:02.003Z,16.30
2018-09-02T08:11:30.837Z,16.50
2018-09-02T08:13:59.438Z,16.60
2018-09-02T08:16:28.264Z,16.80
2018-09-02T08:18:56.810Z,17.00
2018-09-02T08:21:25.850Z,17.30
2018-09-02T08:23:54.722Z,17.40
2018-09-02T08:26:23.282Z,17.80
2018-09-02T08:28:52.118Z,17.90
2018-09-02T08:31:20.813Z,18.00
2018-09-02T08:33:49.436Z,18.30
2018-09-02T08:36:18.223Z,18.30
2018-09-02T08:38:48.036Z,18.50
2018-09-02T08:41:16.567Z,18.60
2018-09-02T08:43:45.477Z,18.50
2018-09-02T08:46:14.395Z,18.70
2018-09-02T08:48:43.172Z,18.60
2018-09-02T08:51:11.883Z,18.70
2018-09-02T08:53:40.650Z,18.80
2018-09-02T08:56:09.538Z,18.80
2018-09-02T08:58:38.435Z,18.70
2018-09-02T09:01:07.437Z,18.70
2018-09-02T09:03:36.021Z,19.00
2018-09-02T09:06:05.103Z,19.00
2018-09-02T09:08:34.373Z,19.10
2018-09-02T09:11:03.028Z,19.40
2018-09-02T09:13:32.013Z,19.50
2018-09-02T09:16:00.933Z,19.60
2018-09-02T09:18:29.823Z,19.80
2018-09-02T09:20:58.948Z,20.00
2018-09-02T09:23:27.755Z,20.20
2018-09-02T09:25:56.849Z,20.30
2018-09-02T09:28:25.866Z,20.40
2018-09-02T09:30:54.574Z,20.50
2018-09-02T09:33:23.457Z,20.60
2018-09-02T09:35:52.673Z,20.90
2018-09-02T09:38:21.656Z,21.10
2018-09-02T09:40:51.001Z,21.10
2018-09-02T09:43:19.865Z,21.50
2018-09-02T09:45:48.897Z,22.00
2018-09-02T09:48:17.748Z,22.30
2018-09-02T09:50:46.772Z,22.70
2018-09-02T09:53:15.596Z,23.20
2018-09-02T09:55:44.418Z,23.50
2018-09-02T09:58:13.339Z,24.10
2018-09-02T10:00:47.246Z,24.90
2018-09-02T10:03:16.406Z,25.20
2018-09-02T10:05:45.222Z,25.50
2018-09-02T10:08:14.092Z,26.20
2018-09-02T10:10:43.147Z,26.20
2018-09-02T10:13:11.860Z,26.30
2018-09-02T10:15:40.769Z,26.30
2018-09-02T10:18:09.328Z,26.70
2018-09-02T10:20:37.926Z,26.70
2018-09-02T10:23:06.824Z,27.30
2018-09-02T10:25:35.555Z,27.60
2018-09-02T10:28:04.509Z,27.10
2018-09-02T10:30:33.319Z,28.10
2018-09-02T10:33:02.245Z,28.50
2018-09-02T10:35:30.928Z,28.20
2018-09-02T10:38:00.124Z,28.30
2018-09-02T10:40:28.907Z,28.80
2018-09-02T10:42:57.692Z,28.70
2018-09-02T10:45:26.457Z,28.80
2018-09-02T10:47:55.796Z,29.70
2018-09-02T10:50:24.526Z,29.60
2018-09-02T10:52:53.498Z,29.60
2018-09-02T10:55:22.323Z,29.70
2018-09-02T10:57:50.946Z,29.70
2018-09-02T11:00:19.832Z,30.20
2018-09-02T11:02:48.750Z,30.10
2018-09-02T11:05:17.311Z,30.00
2018-09-02T11:07:46.157Z,29.40
2018-09-02T11:10:14.624Z,30.40
2018-09-02T11:12:43.504Z,31.30
2018-09-02T11:15:12.364Z,31.00
2018-09-02T11:17:41.236Z,30.70
2018-09-02T11:20:10.685Z,30.50
2018-09-02T11:22:39.487Z,31.10
2018-09-02T11:25:08.616Z,30.60
2018-09-02T11:27:37.417Z,29.30
2018-09-02T11:30:06.948Z,28.20
2018-09-02T11:32:35.580Z,26.80
2018-09-02T11:35:04.469Z,26.70
2018-09-02T11:37:33.138Z,26.90
2018-09-02T11:40:02.137Z,26.40
2018-09-02T11:42:30.898Z,26.50
2018-09-02T11:44:59.643Z,26.10
2018-09-02T11:47:28.649Z,25.70
2018-09-02T11:49:57.386Z,25.80
2018-09-02T11:52:26.115Z,25.70
2018-09-02T11:54:54.939Z,25.50
2018-09-02T11:57:23.666Z,26.40
2018-09-02T11:59:52.427Z,26.70
2018-09-02T12:02:21.023Z,26.70
2018-09-02T12:04:49.651Z,27.10
2018-09-02T12:07:18.609Z,27.30
2018-09-02T12:09:47.292Z,28.40
2018-09-02T12:12:16.079Z,29.70
2018-09-02T12:14:44.851Z,29.90
2018-09-02T12:17:13.520Z,30.60
2018-09-02T12:19:42.291Z,30.90
2018-09-02T12:22:10.838Z,31.20
2018-09-02T12:24:39.885Z,30.40
2018-09-02T12:27:08.975Z,30.40
2018-09-02T12:29:37.630Z,29.80
2018-09-02T12:32:06.558Z,29.30
2018-09-02T12:34:35.137Z,29.20
2018-09-02T12:37:04.247Z,29.10
2018-09-02T12:39:32.823Z,29.10
2018-09-02T12:42:01.416Z,29.20
2018-09-02T12:44:30.392Z,28.90
2018-09-02T12:46:59.057Z,28.50
2018-09-02T12:49:27.716Z,28.40
2018-09-02T12:51:56.655Z,27.90
2018-09-02T12:54:25.609Z,27.50
2018-09-02T12:56:54.156Z,26.60
2018-09-02T12:59:23.057Z,26.50
2018-09-02T13:01:52.235Z,26.50
2018-09-02T13:04:20.957Z,25.90
2018-09-02T13:06:49.794Z,26.10
2018-09-02T13:09:18.535Z,26.40
2018-09-02T13:11:47.537Z,26.40
2018-09-02T13:14:16.296Z,25.50
2018-09-02T13:16:44.859Z,25.80
2018-09-02T13:19:13.540Z,25.60
2018-09-02T13:21:42.456Z,25.70
2018-09-02T13:24:11.557Z,25.60
2018-09-02T13:26:40.458Z,25.40
2018-09-02T13:29:09.056Z,25.10
2018-09-02T13:31:37.989Z,24.70
2018-09-02T13:34:06.778Z,24.70
2018-09-02T13:36:35.959Z,24.50
2018-09-02T13:39:06.138Z,24.10
2018-09-02T13:41:35.101Z,23.60
2018-09-02T13:44:03.764Z,23.20
2018-09-02T13:46:32.327Z,23.00
2018-09-02T13:49:01.068Z,22.70
2018-09-02T13:51:30.202Z,22.70
2018-09-02T13:53:59.257Z,22.70
2018-09-02T13:56:27.916Z,22.80
2018-09-02T13:58:56.961Z,22.60
2018-09-02T14:01:26.141Z,22.50
2018-09-02T14:03:54.880Z,22.60
2018-09-02T14:06:23.468Z,22.60
2018-09-02T14:08:52.445Z,22.50
2018-09-02T14:11:21.392Z,22.50
2018-09-02T14:13:50.297Z,22.30
2018-09-02T14:16:19.109Z,22.30
2018-09-02T14:18:48.243Z,22.10
2018-09-02T14:21:16.877Z,22.00
2018-09-02T14:23:45.575Z,21.80
2018-09-02T14:26:14.383Z,21.80
2018-09-02T14:28:43.012Z,21.70
2018-09-02T14:31:11.887Z,21.60
2018-09-02T14:33:40.678Z,21.70
2018-09-02T14:36:09.312Z,21.70
2018-09-02T14:38:38.070Z,21.50
2018-09-02T14:41:06.818Z,21.40
2018-09-02T14:43:35.804Z,21.30
2018-09-02T14:46:04.722Z,21.30
2018-09-02T14:48:33.328Z,21.30
2018-09-02T14:51:02.224Z,21.10
2018-09-02T14:53:31.329Z,21.00
2018-09-02T14:56:00.378Z,21.00
2018-09-02T14:58:29.000Z,21.10
2018-09-02T15:00:58.021Z,21.10
2018-09-02T15:03:26.858Z,21.10
2018-09-02T15:05:55.843Z,20.90
2018-09-02T15:08:24.794Z,20.70
2018-09-02T15:10:53.679Z,20.80
2018-09-02T15:13:22.345Z,20.80
2018-09-02T15:15:51.016Z,20.80
2018-09-02T15:18:19.635Z,20.90
2018-09-02T15:20:48.467Z,20.90
2018-09-02T15:23:17.503Z,21.00
2018-09-02T15:25:46.268Z,21.10
2018-09-02T15:28:14.872Z,21.00
2018-09-02T15:30:43.675Z,20.90
2018-09-02T15:33:12.561Z,20.90
2018-09-02T15:35:41.533Z,20.80
2018-09-02T15:38:10.518Z,20.50
2018-09-02T15:40:39.485Z,20.40
2018-09-02T15:43:08.473Z,20.20
2018-09-02T15:45:37.182Z,20.10
2018-09-02T15:48:05.888Z,19.90
2018-09-02T15:50:34.844Z,19.90
2018-09-02T15:53:03.763Z,19.80
2018-09-02T15:55:32.747Z,19.80
2018-09-02T15:58:01.558Z,19.80
2018-09-02T16:00:30.338Z,19.80
2018-09-02T16:02:59.365Z,19.80
2018-09-02T16:05:28.668Z,19.70
2018-09-02T16:07:57.355Z,19.50
2018-09-02T16:10:26.132Z,19.50
2018-09-02T16:12:55.280Z,19.50
2018-09-02T16:15:24.409Z,19.50
2018-09-02T16:17:53.318Z,19.40
2018-09-02T16:20:22.196Z,19.30
2018-09-02T16:22:51.285Z,19.20
2018-09-02T16:25:20.236Z,19.30
2018-09-02T16:27:49.121Z,19.20
2018-09-02T16:30:18.239Z,19.10
2018-09-02T16:32:47.252Z,19.10
2018-09-02T16:35:16.003Z,19.00
2018-09-02T16:37:44.827Z,19.10
2018-09-02T16:40:13.843Z,19.00
2018-09-02T16:42:42.787Z,19.00
2018-09-02T16:45:11.574Z,19.00
2018-09-02T16:47:40.560Z,19.00
2018-09-02T16:50:09.562Z,19.00
2018-09-02T16:52:38.498Z,18.90
2018-09-02T16:55:07.726Z,18.90
2018-09-02T16:57:37.035Z,18.90
2018-09-02T17:00:06.743Z,18.80
2018-09-02T17:02:36.020Z,18.90
2018-09-02T17:05:10.879Z,18.80
2018-09-02T17:07:39.800Z,19.00
2018-09-02T17:10:09.102Z,19.00
2018-09-02T17:12:38.556Z,19.00
2018-09-02T17:15:07.532Z,19.00
2018-09-02T17:17:36.561Z,18.80
2018-09-02T17:20:06.243Z,19.00
2018-09-02T17:22:35.334Z,18.90
2018-09-02T17:25:04.689Z,18.80
2018-09-02T17:27:33.759Z,18.80
2018-09-02T17:30:02.575Z,18.70
2018-09-02T17:32:31.638Z,18.60
2018-09-02T17:35:00.628Z,18.50
2018-09-02T17:37:29.790Z,18.40
2018-09-02T17:39:58.529Z,18.20
2018-09-02T17:42:27.337Z,18.20
2018-09-02T17:44:56.461Z,18.20
2018-09-02T17:47:25.620Z,18.20
2018-09-02T17:49:54.648Z,18.20
2018-09-02T17:52:23.657Z,18.30
2018-09-02T17:54:52.594Z,18.20
2018-09-02T17:57:21.703Z,18.20
2018-09-02T17:59:50.765Z,18.20
2018-09-02T18:02:19.714Z,18.20
2018-09-02T18:04:48.692Z,18.10
2018-09-02T18:07:17.573Z,18.10
2018-09-02T18:09:46.616Z,18.10
2018-09-02T18:12:15.513Z,18.10
2018-09-02T18:14:44.212Z,18.10
2018-09-02T18:17:12.939Z,18.10
2018-09-02T18:19:42.220Z,18.10
2018-09-02T18:22:11.166Z,18.10
2018-09-02T18:24:40.067Z,18.00
2018-09-02T18:27:09.319Z,17.90
2018-09-02T18:29:38.395Z,17.90
2018-09-02T18:32:07.786Z,17.90
2018-09-02T18:34:36.986Z,17.80
2018-09-02T18:37:06.425Z,17.80
2018-09-02T18:39:35.589Z,17.80
2018-09-02T18:42:04.966Z,17.70
2018-09-02T18:44:34.016Z,17.60
2018-09-02T18:47:03.167Z,17.50
2018-09-02T18:49:32.462Z,17.60
2018-09-02T18:52:01.535Z,17.60
2018-09-02T18:54:30.967Z,17.60
2018-09-02T18:56:59.982Z,17.60
2018-09-02T18:59:29.348Z,17.50
2018-09-02T19:01:58.714Z,17.50
2018-09-02T19:04:27.976Z,17.60
2018-09-02T19:06:56.821Z,17.60
2018-09-02T19:09:25.514Z,17.50
2018-09-02T19:11:54.285Z,17.60
2018-09-02T19:14:23.359Z,17.60
2018-09-02T19:16:52.394Z,17.60
2018-09-02T19:19:21.282Z,17.60
2018-09-02T19:21:50.350Z,17.50
2018-09-02T19:24:19.140Z,17.40
2018-09-02T19:26:48.075Z,17.40
2018-09-02T19:29:17.568Z,17.40
2018-09-02T19:31:46.671Z,17.40
2018-09-02T19:34:15.504Z,17.40
2018-09-02T19:36:44.223Z,17.40
2018-09-02T19:39:13.162Z,17.30
2018-09-02T19:41:42.084Z,17.30
2018-09-02T19:44:10.934Z,17.30
2018-09-02T19:46:39.925Z,17.30
2018-09-02T19:49:09.273Z,17.30
2018-09-02T19:51:38.163Z,17.30
2018-09-02T19:54:07.302Z,17.30
2018-09-02T19:56:35.925Z,17.20
2018-09-02T19:59:04.709Z,17.10
2018-09-02T20:01:33.448Z,17.20
2018-09-02T20:04:02.246Z,17.30
2018-09-02T20:06:31.090Z,17.30
2018-09-02T20:08:59.860Z,17.20
2018-09-02T20:11:28.444Z,17.00
2018-09-02T20:13:57.343Z,17.10
2018-09-02T20:16:25.901Z,17.00
2018-09-02T20:18:54.823Z,16.90
2018-09-02T20:21:23.605Z,17.00
2018-09-02T20:23:52.300Z,17.00
2018-09-02T20:26:21.140Z,17.00
2018-09-02T20:28:49.866Z,16.80
2018-09-02T20:31:18.553Z,16.80
2018-09-02T20:33:47.477Z,16.90
2018-09-02T20:36:16.336Z,16.80
2018-09-02T20:38:45.223Z,16.80
2018-09-02T20:41:13.903Z,16.70
2018-09-02T20:43:42.633Z,16.80
2018-09-02T20:46:11.285Z,16.80
2018-09-02T20:48:39.807Z,16.70
2018-09-02T20:51:08.407Z,16.60
2018-09-02T20:53:37.266Z,16.60
2018-09-02T20:56:05.953Z,16.60
2018-09-02T20:58:34.591Z,16.60
2018-09-02T21:01:03.385Z,16.60
2018-09-02T21:03:32.240Z,16.60
2018-09-02T21:06:00.874Z,16.60
2018-09-02T21:08:29.426Z,16.60
2018-09-02T21:10:58.164Z,16.60
2018-09-02T21:13:26.890Z,16.60
2018-09-02T21:15:55.820Z,16.60
2018-09-02T21:18:24.359Z,16.60
2018-09-02T21:20:52.929Z,16.60
2018-09-02T21:23:21.447Z,16.50
2018-09-02T21:25:50.220Z,16.50
2018-09-02T21:28:18.787Z,16.60
2018-09-02T21:30:47.594Z,16.50
2018-09-02T21:33:16.132Z,16.40
2018-09-02T21:35:44.657Z,16.40
2018-09-02T21:38:13.210Z,16.40
2018-09-02T21:40:42.048Z,16.40
2018-09-02T21:43:10.604Z,16.50
2018-09-02T21:45:39.173Z,16.50
2018-09-02T21:48:08.058Z,16.40
2018-09-02T21:50:36.890Z,16.50
2018-09-02T21:53:05.839Z,16.50
2018-09-02T21:55:34.515Z,16.50
2018-09-02T21:58:03.007Z,16.40
2018-09-02T22:00:31.605Z,16.50
2018-09-02T22:03:00.162Z,16.40
2018-09-02T22:05:28.971Z,16.40
2018-09-02T22:07:57.746Z,16.40
2018-09-02T22:10:26.283Z,16.40
2018-09-02T22:12:55.166Z,16.40
2018-09-02T22:15:23.676Z,16.40
2018-09-02T22:17:52.576Z,16.30
2018-09-02T22:20:21.169Z,16.40
2018-09-02T22:22:49.887Z,16.40
2018-09-02T22:25:18.420Z,16.40
2018-09-02T22:27:46.944Z,16.40
2018-09-02T22:30:15.773Z,16.40
2018-09-02T22:32:44.394Z,16.40
2018-09-02T22:35:13.119Z,16.30
2018-09-02T22:37:41.766Z,16.30
2018-09-02T22:40:10.687Z,16.30
2018-09-02T22:42:39.249Z,16.30
2018-09-02T22:45:07.820Z,16.20
2018-09-02T22:47:36.347Z,16.30
2018-09-02T22:50:05.084Z,16.20
2018-09-02T22:52:33.621Z,16.20
2018-09-02T22:55:02.139Z,16.20
2018-09-02T22:57:30.640Z,16.10
2018-09-02T22:59:59.405Z,16.00
2018-09-02T23:02:28.167Z,16.10
2018-09-02T23:04:56.685Z,16.10
2018-09-02T23:07:25.228Z,16.10
2018-09-02T23:09:54.120Z,16.10
2018-09-02T23:12:22.826Z,16.10
2018-09-02T23:14:51.551Z,16.10
2018-09-02T23:17:20.287Z,16.10
2018-09-02T23:19:48.828Z,16.00
2018-09-02T23:22:17.967Z,16.00
2018-09-02T23:24:46.777Z,15.90
2018-09-02T23:27:15.447Z,15.80
2018-09-02T23:29:44.216Z,15.80
2018-09-02T23:32:12.729Z,15.80
2018-09-02T23:34:41.293Z,15.80
2018-09-02T23:37:10.006Z,15.80
2018-09-02T23:39:39.189Z,15.90
2018-09-02T23:42:07.986Z,15.90
2018-09-02T23:44:36.461Z,15.90
2018-09-02T23:47:04.959Z,16.00
2018-09-02T23:49:33.503Z,16.10
2018-09-02T23:52:02.115Z,16.00
2018-09-02T23:54:30.672Z,16.10
2018-09-02T23:56:59.330Z,16.00
2018-09-02T23:59:27.831Z,16.00
